Quantico MCAF /Turner field
KNYG : now visible

Airfield :











YOU CAN JOIN US ON...

 
LOGIN :

Register | Disclaimer

   EN    FR    IT 

 









Legend :    VFR   Marginal VFR   IFR   Intensive IFR   Very Intensive IFR
Visi :
Ceiling :
>= 8 km
>= 3000ft
5 to 8 km
1000 to 3000 ft
1500m to 5 km
500 to 1000 ft
800 to 1500m
200 to 500 ft
< 800m
< 200 ft
Symbols :   Thunderstorms  Fog  Heavy snow  Heavy precipitations  Wind > 20 kt






- Airport Elevation : 10 ft


KNYG - Quantico MCAF /Turner field

CURRENT METAR :
  • 202121Z AUTO 14008KT 4SM FEW020 SCT025 OVC034 25/21 A3006 RMK AO2 T02500211

EXPIRED METARs :
  • 202104Z AUTO 13011KT 4SM SCT013 BKN022 OVC028 25/21 A3006 RMK AO2 T02500211
  • 202056Z AUTO 14014G20KT 3SM BKN014 BKN024 OVC029 25/22 A3006 RMK AO2 SLP180 T02500222 58006
  • 202048Z AUTO 15007KT 3SM SCT014 BKN029 OVC110 26/23 A3006 RMK AO2 T02560228
  • 202013Z AUTO 00000KT 3SM FEW065 BKN095 OVC110 25/21 A3007 RMK AO2 T02500211
  • 201956Z AUTO 2 1/2SM BKN095 OVC110 25/21 A3007 RMK AO2 SLP184 T02500211
  • 201908Z AUTO 17010KT 2SM SCT027 BKN039 OVC100 24/21 A3009 RMK AO2 T02440206
  • 201856Z AUTO 17014KT 2SM BKN029 OVC036 25/22 A3009 RMK AO2 SLP189 T02500217
  • 201837Z AUTO 14014G18KT 2 1/2SM BKN028 BKN033 OVC110 27/22 A3008 RMK AO2 T02720222
  • 201756Z AUTO 15008KT 4SM OVC110 28/21 A3008 RMK AO2 SLP187 T02830206 10289 20244 58008
  • 201656Z AUTO 13009KT 4SM BKN095 29/21 A3009 RMK AO2 SLP190 T02890211

Expired Forecast.
KZDC FIR / North America



MET'MAP, your aeronautical weather chart ! - Copyright ORBIFLY December 2007 - Disclaimer

ORBIFLY MET'MAP TEAM :

Programming & Development : Alexandra Zaïnal
Original concept : Baudouin d'Aumeries
Technical & hardware support : Manuel Goepfert
Assistance : Marc-Olivier Méhu




SOURCES & CREDITS :

   NOAA       Earth
Advisory